createdAt,value
2023-03-06T00:17:47.196Z,66.69
2023-03-06T00:31:07.783Z,66.47
2023-03-06T00:35:00.615Z,66.58
2023-03-06T00:38:53.258Z,66.77
2023-03-06T00:42:46.906Z,66.61
2023-03-06T00:46:39.568Z,67.39
2023-03-06T00:50:32.480Z,66.83
2023-03-06T00:54:53.017Z,66.75
2023-03-06T00:58:46.926Z,66.63
2023-03-06T01:02:56.509Z,66.79
2023-03-06T01:11:01.746Z,67.13
2023-03-06T01:14:54.927Z,66.96
2023-03-06T01:18:48.093Z,66.56
2023-03-06T01:22:40.976Z,66.53
2023-03-06T01:26:34.736Z,66.72
2023-03-06T01:30:27.613Z,66.90
2023-03-06T01:34:20.394Z,67.19
2023-03-06T01:42:34.617Z,67.97
2023-03-06T01:46:30.903Z,67.73
2023-03-06T01:50:24.092Z,67.52
2023-03-06T01:54:28.751Z,67.22
2023-03-06T01:58:22.612Z,67.34
2023-03-06T02:02:15.808Z,67.73
2023-03-06T02:06:09.580Z,67.71
2023-03-06T02:10:02.406Z,67.33
2023-03-06T02:13:55.575Z,67.04
2023-03-06T02:17:52.916Z,67.80
2023-03-06T02:21:45.716Z,67.64
2023-03-06T02:30:15.393Z,67.43
2023-03-06T02:34:40.026Z,67.42
2023-03-06T02:38:44.694Z,66.96
2023-03-06T02:42:37.369Z,66.47
2023-03-06T02:46:33.974Z,66.48
2023-03-06T02:54:55.328Z,66.75
2023-03-06T02:58:53.142Z,66.81
2023-03-06T03:25:41.558Z,66.46
2023-03-06T03:29:34.744Z,66.54
2023-03-06T03:33:27.345Z,66.13
2023-03-06T03:37:20.147Z,66.35
2023-03-06T03:54:02.988Z,66.87
2023-03-06T03:57:56.007Z,67.43
2023-03-06T04:01:49.528Z,67.76
2023-03-06T04:05:42.660Z,68.03
2023-03-06T04:09:35.419Z,68.32
2023-03-06T04:13:28.388Z,68.15
2023-03-06T04:17:21.002Z,68.69
2023-03-06T04:21:14.695Z,69.11
2023-03-06T04:25:07.530Z,69.45
2023-03-06T04:29:00.240Z,70.09
2023-03-06T04:32:52.918Z,69.77
2023-03-06T04:36:45.901Z,69.51
2023-03-06T04:44:52.554Z,70.58
2023-03-06T04:53:22.773Z,69.53
2023-03-06T04:57:16.279Z,69.97
2023-03-06T05:01:09.251Z,70.35
2023-03-06T05:05:02.329Z,70.42
2023-03-06T05:13:09.857Z,70.57
2023-03-06T05:17:02.549Z,70.71
2023-03-06T05:20:59.628Z,71.18
2023-03-06T05:24:52.807Z,70.87
2023-03-06T05:28:45.784Z,71.47
2023-03-06T05:32:38.754Z,71.74
2023-03-06T05:36:31.532Z,72.01
2023-03-06T05:40:24.319Z,72.42
2023-03-06T05:52:58.927Z,74.33
2023-03-06T06:01:28.606Z,74.70
2023-03-06T06:05:21.299Z,74.97
2023-03-06T06:09:14.498Z,75.78
2023-03-06T06:13:07.515Z,75.93
2023-03-06T06:17:01.223Z,76.54
2023-03-06T06:25:15.467Z,77.20
2023-03-06T07:00:34.763Z,79.76
2023-03-06T07:04:27.365Z,79.81
2023-03-06T07:08:20.003Z,79.63
2023-03-06T07:12:12.773Z,79.65
2023-03-06T07:16:05.751Z,79.65
2023-03-06T07:19:59.784Z,79.32
2023-03-06T07:23:52.478Z,79.78
2023-03-06T07:27:51.055Z,79.91
2023-03-06T07:31:47.003Z,79.93
2023-03-06T07:35:41.441Z,80.23
2023-03-06T07:39:34.211Z,80.48
2023-03-06T07:43:27.046Z,80.29
2023-03-06T07:47:19.762Z,80.20
2023-03-06T07:51:18.371Z,80.21
2023-03-06T07:55:11.732Z,80.46
2023-03-06T07:59:04.395Z,81.55
2023-03-06T08:02:57.248Z,80.57
2023-03-06T08:06:49.876Z,81.19
2023-03-06T08:10:48.488Z,81.92
2023-03-06T08:14:41.181Z,82.15
2023-03-06T08:18:34.411Z,82.15
2023-03-06T08:22:27.215Z,81.88
2023-03-06T08:26:23.874Z,81.67
2023-03-06T08:30:16.684Z,81.58
2023-03-06T08:34:12.747Z,81.98
2023-03-06T08:38:05.363Z,81.43
2023-03-06T08:41:58.307Z,81.25
2023-03-06T08:45:55.846Z,81.97
2023-03-06T08:49:49.767Z,81.48
2023-03-06T08:53:44.541Z,81.50
2023-03-06T08:57:38.089Z,80.91
2023-03-06T09:01:34.667Z,81.39
2023-03-06T09:05:28.425Z,81.66
2023-03-06T09:09:21.715Z,80.63
2023-03-06T09:13:15.543Z,81.10
2023-03-06T09:17:09.227Z,81.72
2023-03-06T09:21:04.759Z,82.57
2023-03-06T09:24:58.442Z,83.36
2023-03-06T09:28:52.061Z,83.60
2023-03-06T09:32:46.314Z,83.23
2023-03-06T09:36:53.706Z,82.77
2023-03-06T09:40:58.168Z,83.28
2023-03-06T09:44:56.957Z,84.01
2023-03-06T09:49:16.121Z,84.24
2023-03-06T09:57:31.314Z,85.75
2023-03-06T10:01:29.018Z,85.65
2023-03-06T10:05:29.184Z,85.81
2023-03-06T10:09:28.848Z,86.28
2023-03-06T10:13:29.343Z,86.24
2023-03-06T10:17:24.121Z,86.65
2023-03-06T10:21:48.634Z,87.20
2023-03-06T10:26:16.217Z,86.79
2023-03-06T10:30:40.423Z,86.77
2023-03-06T10:34:38.666Z,87.02
2023-03-06T10:38:31.214Z,86.83
2023-03-06T10:42:24.924Z,87.06
2023-03-06T10:46:28.814Z,86.27
2023-03-06T10:50:27.862Z,86.12
2023-03-06T10:54:20.808Z,85.06
2023-03-06T10:58:27.193Z,85.56
2023-03-06T11:02:34.185Z,83.28
2023-03-06T11:06:37.934Z,82.72
2023-03-06T11:10:32.229Z,82.62
2023-03-06T11:14:27.474Z,82.25
2023-03-06T11:18:26.429Z,82.10
2023-03-06T11:22:22.196Z,82.35
2023-03-06T11:26:18.062Z,81.04
2023-03-06T11:30:20.370Z,82.70
2023-03-06T11:34:30.894Z,81.21
2023-03-06T11:38:38.160Z,81.74
2023-03-06T11:42:55.013Z,81.41
2023-03-06T11:46:52.903Z,79.48
2023-03-06T11:50:45.434Z,79.61
2023-03-06T11:54:38.419Z,78.62
2023-03-06T11:58:46.542Z,78.82
2023-03-06T12:02:51.260Z,79.64
2023-03-06T12:07:07.537Z,80.35
2023-03-06T12:11:19.818Z,81.20
2023-03-06T12:15:38.678Z,80.61
2023-03-06T12:19:57.784Z,80.95
2023-03-06T12:24:12.586Z,80.85
2023-03-06T12:28:20.577Z,80.83
2023-03-06T12:32:19.572Z,82.84
2023-03-06T12:36:33.804Z,80.58
2023-03-06T12:40:40.235Z,80.23
2023-03-06T12:44:49.663Z,80.14
2023-03-06T12:48:46.149Z,80.14
2023-03-06T12:52:38.838Z,80.28
2023-03-06T12:56:33.238Z,80.37
2023-03-06T13:00:35.377Z,80.48
2023-03-06T13:04:36.061Z,79.38
2023-03-06T13:08:37.721Z,79.92
2023-03-06T13:12:45.513Z,79.28
2023-03-06T13:16:38.243Z,79.28
2023-03-06T13:20:44.302Z,79.63
2023-03-06T13:24:37.808Z,79.26
2023-03-06T13:28:40.827Z,78.79
2023-03-06T13:32:35.892Z,78.21
2023-03-06T13:36:39.916Z,78.39
2023-03-06T13:40:37.819Z,78.88
2023-03-06T13:44:30.984Z,79.06
2023-03-06T13:48:45.510Z,78.05
2023-03-06T13:52:53.686Z,78.45
2023-03-06T13:56:46.598Z,78.42
2023-03-06T14:00:57.950Z,78.02
2023-03-06T14:04:56.426Z,77.86
2023-03-06T14:08:49.537Z,77.47
2023-03-06T14:12:51.758Z,77.56
2023-03-06T14:16:50.825Z,77.50
2023-03-06T14:20:48.795Z,77.79
2023-03-06T14:24:51.013Z,78.19
2023-03-06T14:28:46.105Z,78.01
2023-03-06T14:32:40.553Z,78.43
2023-03-06T14:36:49.130Z,78.25
2023-03-06T14:40:45.031Z,78.47
2023-03-06T14:44:37.544Z,78.04
2023-03-06T14:48:42.133Z,77.85
2023-03-06T14:52:35.484Z,77.75
2023-03-06T14:56:28.574Z,78.28
2023-03-06T15:00:24.206Z,78.39
2023-03-06T15:04:53.992Z,78.07
2023-03-06T15:08:49.409Z,77.90
2023-03-06T15:12:41.972Z,78.42
2023-03-06T15:16:34.903Z,79.19
2023-03-06T15:20:48.008Z,79.42
2023-03-06T15:24:40.683Z,79.51
2023-03-06T15:28:38.974Z,79.06
2023-03-06T15:32:34.728Z,79.71
2023-03-06T15:36:30.022Z,79.36
2023-03-06T15:40:25.523Z,79.21
2023-03-06T15:44:18.674Z,79.67
2023-03-06T15:48:17.703Z,79.51
2023-03-06T15:52:11.060Z,79.69
2023-03-06T15:56:03.804Z,79.97
2023-03-06T15:59:58.041Z,79.98
2023-03-06T16:03:50.993Z,80.56
2023-03-06T16:07:44.341Z,80.47
2023-03-06T16:11:43.798Z,80.49
2023-03-06T16:15:45.456Z,80.66
2023-03-06T16:19:38.244Z,80.78
2023-03-06T16:23:31.282Z,80.90
2023-03-06T16:27:26.154Z,80.90
2023-03-06T16:31:18.845Z,80.79
2023-03-06T16:35:12.940Z,80.84
2023-03-06T16:39:06.390Z,81.05
2023-03-06T16:42:59.674Z,81.22
2023-03-06T16:46:52.866Z,80.74
2023-03-06T16:50:46.636Z,80.88
2023-03-06T16:54:39.768Z,80.99
2023-03-06T16:58:33.318Z,81.38
2023-03-06T17:02:26.358Z,81.81
2023-03-06T17:06:22.145Z,82.18
2023-03-06T17:10:16.928Z,82.54
2023-03-06T17:14:09.949Z,82.11
2023-03-06T17:18:03.142Z,82.28
2023-03-06T17:21:56.302Z,82.65
2023-03-06T17:25:49.534Z,82.07
2023-03-06T17:29:42.860Z,81.90
2023-03-06T17:33:35.757Z,82.28
2023-03-06T17:37:29.298Z,83.33
2023-03-06T17:41:25.241Z,83.39
2023-03-06T17:45:18.610Z,82.75
2023-03-06T17:49:11.465Z,82.78
2023-03-06T17:53:04.665Z,83.16
2023-03-06T17:57:01.509Z,82.96
2023-03-06T18:00:56.258Z,83.48
2023-03-06T18:04:49.742Z,84.11
2023-03-06T18:08:44.159Z,84.09
2023-03-06T18:12:37.882Z,83.81
2023-03-06T18:16:31.439Z,83.69
2023-03-06T18:20:25.364Z,83.46
2023-03-06T18:24:18.986Z,83.92
2023-03-06T18:28:12.145Z,83.65
2023-03-06T18:32:06.075Z,83.05
2023-03-06T18:36:03.814Z,83.14
2023-03-06T18:39:57.749Z,83.63
2023-03-06T18:43:56.824Z,84.13
2023-03-06T18:47:50.175Z,84.49
2023-03-06T18:51:44.557Z,84.97
2023-03-06T18:55:39.165Z,84.60
2023-03-06T18:59:32.331Z,84.94
2023-03-06T19:03:26.315Z,84.64
2023-03-06T19:07:20.682Z,85.03
2023-03-06T19:11:16.414Z,85.21
2023-03-06T19:15:10.277Z,85.67
2023-03-06T19:19:03.994Z,85.93
2023-03-06T19:22:57.578Z,85.52
2023-03-06T19:26:53.636Z,85.82
2023-03-06T19:30:47.107Z,85.57
2023-03-06T19:34:40.825Z,85.79
2023-03-06T19:38:36.860Z,85.88
2023-03-06T19:42:31.927Z,86.02
2023-03-06T19:46:27.408Z,85.86
2023-03-06T19:50:22.660Z,85.62
2023-03-06T19:54:16.180Z,85.64
2023-03-06T19:58:09.574Z,86.11
2023-03-06T20:02:03.343Z,85.83
2023-03-06T20:05:56.670Z,86.05
2023-03-06T20:09:55.064Z,85.78
2023-03-06T20:13:49.121Z,85.49
2023-03-06T20:17:42.650Z,85.12
2023-03-06T20:21:38.345Z,84.84
2023-03-06T20:25:32.366Z,85.91
2023-03-06T20:29:28.203Z,86.02
2023-03-06T20:33:23.994Z,86.20
2023-03-06T20:37:17.840Z,86.08
2023-03-06T20:41:37.922Z,86.18
2023-03-06T20:45:32.632Z,86.56
2023-03-06T20:49:32.230Z,86.48
2023-03-06T20:53:25.228Z,86.61
2023-03-06T20:57:22.442Z,86.19
2023-03-06T21:01:24.845Z,85.99
2023-03-06T21:05:18.333Z,85.62
2023-03-06T21:09:11.904Z,85.54
2023-03-06T21:13:04.927Z,86.63
2023-03-06T21:16:57.623Z,86.94
2023-03-06T21:20:51.442Z,86.92
2023-03-06T21:24:45.436Z,86.56
2023-03-06T21:28:38.409Z,85.44
2023-03-06T21:32:32.212Z,84.96
2023-03-06T21:36:26.087Z,84.89
2023-03-06T21:40:19.104Z,84.95
2023-03-06T21:44:11.722Z,84.91
2023-03-06T21:48:04.862Z,84.31
2023-03-06T21:51:57.580Z,84.21
2023-03-06T21:55:50.176Z,84.37
2023-03-06T21:59:42.910Z,85.20
2023-03-06T22:03:35.846Z,85.23
2023-03-06T22:07:29.271Z,85.06
2023-03-06T22:11:24.101Z,85.54
2023-03-06T22:15:17.104Z,86.20
2023-03-06T22:19:09.656Z,86.25
2023-03-06T22:23:02.480Z,85.96
2023-03-06T22:26:55.112Z,86.06
2023-03-06T22:30:47.721Z,86.28
2023-03-06T22:35:06.452Z,86.04
2023-03-06T23:55:39.669Z,86.87
2023-03-06T23:59:33.154Z,87.01
